Time;durP1;ratioP1;P1;durP2;ratioP2;P2;SDS_P1;SDS_P2;PMS_P1;PMS_P2;Temp;Humidity;BMP_temperature;BMP_pressure;BME280_temperature;BME280_humidity;BME280_pressure;Samples;Min_cycle;Max_cycle;Signal;HPM_P1;HPM_P2
2021/08/20 00:04:33;;;;;;;;;;;;;;;;;;10341093;28;20019;-61
2021/08/20 00:09:30;;;;;;;;;;;;;;;;;;10339412;28;19921;-62
2021/08/20 00:14:27;;;;;;;;;;;;;;;;;;10329924;28;19924;-62
2021/08/20 00:19:24;;;;;;;;;;;;;;;;;;10345288;28;20031;-62
2021/08/20 00:24:22;;;;;;;;;;;;;;;;;;10330344;28;19921;-64
2021/08/20 00:29:19;;;;;;;;;;;;;;;;;;10332881;28;20067;-65
2021/08/20 00:34:16;;;;;;;;;;;;;;;;;;10331515;28;20032;-63
2021/08/20 00:39:14;;;;;;;;;;;;;;;;;;10330374;28;20266;-64
2021/08/20 00:44:11;;;;;;;;;;;;;;;;;;10332322;28;19917;-64
2021/08/20 00:49:08;;;;;;;;;;;;;;;;;;10335220;28;19979;-62
2021/08/20 00:54:08;;;;;;;;;;;;;;;;;;10349031;28;20317;-64
2021/08/20 00:59:06;;;;;;;;;;;;;;;;;;10349861;28;19921;-64
2021/08/20 01:04:04;;;;;;;;;;;;;;;;;;10338823;28;19917;-64
2021/08/20 01:09:01;;;;;;;;;;;;;;;;;;10347777;28;19917;-64
2021/08/20 01:13:58;;;;;;;;;;;;;;;;;;10340293;28;19916;-65
2021/08/20 01:18:55;;;;;;;;;;;;;;;;;;10350648;28;20056;-65
2021/08/20 01:23:53;;;;;;;;;;;;;;;;;;10335934;28;19921;-64
2021/08/20 01:28:50;;;;;;;;;;;;;;;;;;10339646;28;19925;-63
2021/08/20 01:33:47;;;;;;;;;;;;;;;;;;10335646;28;19924;-64
2021/08/20 01:38:45;;;;;;;;;;;;;;;;;;10341154;28;19956;-64
2021/08/20 01:43:43;;;;;;;;;;;;;;;;;;10343253;28;19963;-63
2021/08/20 01:48:41;;;;;;;;;;;;;;;;;;10338492;28;19921;-61
2021/08/20 01:53:38;;;;;;;;;;;;;;;;;;10337920;28;19970;-63
2021/08/20 01:58:35;;;;;;;;;;;;;;;;;;10347435;28;19925;-61
2021/08/20 02:03:33;;;;;;;;;;;;;;;;;;10341027;28;19916;-63
2021/08/20 02:08:30;;;;;;;;;;;;;;;;;;10329455;28;19933;-63
2021/08/20 02:13:27;;;;;;;;;;;;;;;;;;10325514;28;19924;-63
2021/08/20 02:18:25;;;;;;;;;;;;;;;;;;10343852;28;19928;-63
2021/08/20 02:23:23;;;;;;;;;;;;;;;;;;10340554;28;20375;-65
2021/08/20 02:28:20;;;;;;;;;;;;;;;;;;10336459;28;19920;-63
2021/08/20 02:33:17;;;;;;;;;;;;;;;;;;10324126;28;19996;-64
2021/08/20 02:38:15;;;;;;;;;;;;;;;;;;10337578;28;20398;-63
2021/08/20 02:43:13;;;;;;;;;;;;;;;;;;10343509;28;19917;-63
2021/08/20 02:48:10;;;;;;;;;;;;;;;;;;10344470;28;19979;-64
2021/08/20 02:53:08;;;;;;;;;;;;;;;;;;10330568;28;20370;-64
2021/08/20 02:58:06;;;;;;;;;;;;;;;;;;10335823;28;20429;-63
2021/08/20 03:03:07;;;;;;;;;;;;;;;;;;10333129;28;19928;-63
2021/08/20 03:08:04;;;;;;;;;;;;;;;;;;10317334;28;20412;-63
2021/08/20 03:13:04;;;;;;;;;;;;;;;;;;10341280;28;19917;-64
2021/08/20 03:18:01;;;;;;;;;;;;;;;;;;10301639;28;19921;-63
2021/08/20 03:22:59;;;;;;;;;;;;;;;;;;10323115;28;19917;-64
2021/08/20 03:27:58;;;;;;;;;;;;;;;;;;10340285;28;19921;-63
2021/08/20 03:33:03;;;;;;;;;;;;;;;;;;10324634;28;19916;-63
2021/08/20 03:38:01;;;;;;;;;;;;;;;;;;10328560;28;19917;-63
2021/08/20 03:43:02;;;;;;;;;;;;;;;;;;10328144;28;19921;-64
2021/08/20 03:48:05;;;;;;;;;;;;;;;;;;10284283;28;20400;-63
2021/08/20 03:53:02;;;;;;;;;;;;;;;;;;10310826;28;19939;-63
2021/08/20 03:58:00;;;;;;;;;;;;;;;;;;10333469;28;19917;-63
2021/08/20 04:02:57;;;;;;;;;;;;;;;;;;10310961;28;19975;-63
2021/08/20 04:07:54;;;;;;;;;;;;;;;;;;10311952;28;19932;-62
2021/08/20 04:13:18;;;;;;;;;;;;;;;;;;10337752;28;19972;-62
2021/08/20 04:18:17;;;;;;;;;;;;;;;;;;10335542;28;19949;-62
2021/08/20 04:23:15;;;;;;;;;;;;;;;;;;10338128;28;19920;-61
2021/08/20 04:28:16;;;;;;;;;;;;;;;;;;10310518;28;20223;-63
2021/08/20 04:33:36;;;;;;;;;;;;;;;;;;10335739;28;20401;-63
2021/08/20 04:38:52;;;;;;;;;;;;;;;;;;10347138;28;19917;-63
2021/08/20 04:44:00;;;;;;;;;;;;;;;;;;10331613;28;19917;-62
2021/08/20 04:49:12;;;;;;;;;;;;;;;;;;10348458;28;20321;-63
2021/08/20 04:54:19;;;;;;;;;;;;;;;;;;10326326;28;20016;-64
2021/08/20 04:59:30;;;;;;;;;;;;;;;;;;10336608;28;20012;-61
2021/08/20 05:04:27;;;;;;;;;;;;;;;;;;10338426;28;19999;-61
2021/08/20 05:09:24;;;;;;;;;;;;;;;;;;10345940;28;19932;-62
2021/08/20 05:14:21;;;;;;;;;;;;;;;;;;10322305;28;19928;-62
2021/08/20 05:19:19;;;;;;;;;;;;;;;;;;10348094;28;20405;-61
2021/08/20 05:24:16;;;;;;;;;;;;;;;;;;10330837;28;19948;-62
2021/08/20 05:29:13;;;;;;;;;;;;;;;;;;10346359;28;20014;-61
2021/08/20 05:34:10;;;;;;;;;;;;;;;;;;10336720;28;19916;-61
2021/08/20 05:39:08;;;;;;;;;;;;;;;;;;10338657;28;20378;-62
2021/08/20 05:44:05;;;;;;;;;;;;;;;;;;10336047;28;20008;-62
2021/08/20 05:49:05;;;;;;;;;;;;;;;;;;10335000;28;19974;-61
2021/08/20 05:54:03;;;;;;;;;;;;;;;;;;10339611;28;19925;-62
2021/08/20 05:59:00;;;;;;;;;;;;;;;;;;10341816;28;19922;-61
2021/08/20 06:03:57;;;;;;;;;;;;;;;;;;10338653;28;19917;-61
2021/08/20 06:09:02;;;;;;;;;;;;;;;;;;10340108;28;19921;-61
2021/08/20 06:14:00;;;;;;;;;;;;;;;;;;10341033;28;19917;-61
2021/08/20 06:18:57;;;;;;;;;;;;;;;;;;10337321;28;19921;-61
2021/08/20 06:23:54;;;;;;;;;;;;;;;;;;10332392;28;20329;-61
2021/08/20 06:28:51;;;;;;;;;;;;;;;;;;10338126;28;19921;-61
2021/08/20 06:33:53;;;;;;;;;;;;;;;;;;10286471;28;19968;-61
2021/08/20 06:38:50;;;;;;;;;;;;;;;;;;10331333;28;19964;-62
2021/08/20 06:43:47;;;;;;;;;;;;;;;;;;10317683;28;19916;-60
2021/08/20 06:48:45;;;;;;;;;;;;;;;;;;10314290;28;19952;-61
2021/08/20 06:53:42;;;;;;;;;;;;;;;;;;10326665;28;19952;-63
2021/08/20 06:58:39;;;;;;;;;;;;;;;;;;10316704;28;19917;-61
2021/08/20 07:03:38;;;;;;;;;;;;;;;;;;10368453;22;21622;-64
2021/08/20 07:08:36;;;;;;;;;;;;;;;;;;10321267;28;20307;-65
2021/08/20 07:13:33;;;;;;;;;;;;;;;;;;10301327;28;20048;-66
2021/08/20 07:18:30;;;;;;;;;;;;;;;;;;10282158;28;19918;-67
2021/08/20 07:23:27;;;;;;;;;;;;;;;;;;10278654;28;20393;-67
2021/08/20 07:28:26;;;;;;;;;;;;;;;;;;10282373;28;19922;-68
2021/08/20 07:33:23;;;;;;;;;;;;;;;;;;10274643;28;20408;-67
2021/08/20 07:38:20;;;;;;;;;;;;;;;;;;10281359;28;19940;-67
2021/08/20 07:43:18;;;;;;;;;;;;;;;;;;10270205;28;20453;-67
2021/08/20 07:48:15;;;;;;;;;;;;;;;;;;10266783;28;19921;-65
2021/08/20 07:53:15;;;;;;;;;;;;;;;;;;10270096;28;19970;-65
2021/08/20 07:58:13;;;;;;;;;;;;;;;;;;10254015;28;19921;-65
2021/08/20 08:03:10;;;;;;;;;;;;;;;;;;10252822;28;19943;-65
2021/08/20 08:08:07;;;;;;;;;;;;;;;;;;10282513;28;19971;-65
2021/08/20 08:13:04;;;;;;;;;;;;;;;;;;10289001;28;19917;-66
2021/08/20 08:18:02;;;;;;;;;;;;;;;;;;10294091;28;19917;-66
2021/08/20 08:22:59;;;;;;;;;;;;;;;;;;10288016;28;19952;-66
2021/08/20 08:27:56;;;;;;;;;;;;;;;;;;10292582;28;19920;-66
2021/08/20 08:32:54;;;;;;;;;;;;;;;;;;10290587;28;19921;-66
2021/08/20 08:37:51;;;;;;;;;;;;;;;;;;10283393;28;20610;-66
2021/08/20 08:42:49;;;;;;;;;;;;;;;;;;10298494;28;19917;-66
2021/08/20 08:47:46;;;;;;;;;;;;;;;;;;10279649;28;21895;-66
2021/08/20 08:52:43;;;;;;;;;;;;;;;;;;10281225;28;19968;-66
2021/08/20 08:57:41;;;;;;;;;;;;;;;;;;10285278;28;19920;-67
2021/08/20 09:02:38;;;;;;;;;;;;;;;;;;10289911;28;20367;-66
2021/08/20 09:07:35;;;;;;;;;;;;;;;;;;10293823;28;19921;-66
2021/08/20 09:12:33;;;;;;;;;;;;;;;;;;10283638;28;19933;-67
2021/08/20 09:17:34;;;;;;;;;;;;;;;;;;10307465;28;19921;-66
2021/08/20 09:22:31;;;;;;;;;;;;;;;;;;10286701;28;19937;-64
2021/08/20 09:27:29;;;;;;;;;;;;;;;;;;10269544;28;19929;-65
2021/08/20 09:32:26;;;;;;;;;;;;;;;;;;10268052;28;19914;-64
2021/08/20 09:37:23;;;;;;;;;;;;;;;;;;10267785;28;19936;-65
2021/08/20 09:42:20;;;;;;;;;;;;;;;;;;10268657;28;19979;-65
2021/08/20 09:47:18;;;;;;;;;;;;;;;;;;10267336;28;19925;-65
2021/08/20 09:52:15;;;;;;;;;;;;;;;;;;10295321;28;19925;-65
2021/08/20 09:57:12;;;;;;;;;;;;;;;;;;10292601;28;19995;-65
2021/08/20 10:02:10;;;;;;;;;;;;;;;;;;10306716;28;19927;-65
2021/08/20 10:07:07;;;;;;;;;;;;;;;;;;10271111;28;20197;-64
2021/08/20 10:12:04;;;;;;;;;;;;;;;;;;10277235;28;19924;-65
2021/08/20 10:17:01;;;;;;;;;;;;;;;;;;10303822;28;19921;-65
2021/08/20 10:21:59;;;;;;;;;;;;;;;;;;10300825;28;19918;-65
2021/08/20 10:26:57;;;;;;;;;;;;;;;;;;10280908;28;19922;-65
2021/08/20 10:31:54;;;;;;;;;;;;;;;;;;10298198;28;20422;-66
2021/08/20 10:36:52;;;;;;;;;;;;;;;;;;10276290;28;19944;-65
2021/08/20 10:41:49;;;;;;;;;;;;;;;;;;10288200;28;19925;-66
2021/08/20 10:46:47;;;;;;;;;;;;;;;;;;10285569;28;19999;-71
2021/08/20 10:51:44;;;;;;;;;;;;;;;;;;10278264;28;19923;-66
2021/08/20 10:56:41;;;;;;;;;;;;;;;;;;10295457;28;19921;-66
2021/08/20 11:01:38;;;;;;;;;;;;;;;;;;10271966;28;19943;-66
2021/08/20 11:06:36;;;;;;;;;;;;;;;;;;10271546;28;20020;-66
2021/08/20 11:11:33;;;;;;;;;;;;;;;;;;10276393;28;19978;-66
2021/08/20 11:16:30;;;;;;;;;;;;;;;;;;10244376;28;19949;-66
2021/08/20 11:21:28;;;;;;;;;;;;;;;;;;10286979;28;20051;-66
2021/08/20 11:26:25;;;;;;;;;;;;;;;;;;10268509;28;20350;-66
2021/08/20 11:31:22;;;;;;;;;;;;;;;;;;10272204;28;19917;-66
2021/08/20 11:36:21;;;;;;;;;;;;;;;;;;10275651;28;20359;-66
2021/08/20 11:41:23;;;;;;;;;;;;;;;;;;10245710;28;20088;-66
2021/08/20 11:46:21;;;;;;;;;;;;;;;;;;10259497;28;19972;-66
2021/08/20 11:51:18;;;;;;;;;;;;;;;;;;10278550;28;19964;-66
2021/08/20 11:56:15;;;;;;;;;;;;;;;;;;10275733;28;19924;-66
2021/08/20 12:01:12;;;;;;;;;;;;;;;;;;10286186;28;19953;-66
2021/08/20 12:06:10;;;;;;;;;;;;;;;;;;10282172;28;19975;-66
2021/08/20 12:11:07;;;;;;;;;;;;;;;;;;10287192;28;19917;-66
2021/08/20 12:16:04;;;;;;;;;;;;;;;;;;10282121;28;19917;-66
2021/08/20 12:21:02;;;;;;;;;;;;;;;;;;10270706;28;19921;-66
2021/08/20 12:26:02;;;;;;;;;;;;;;;;;;10285162;28;20008;-66
2021/08/20 12:30:59;;;;;;;;;;;;;;;;;;10270663;28;20303;-66
2021/08/20 12:35:56;;;;;;;;;;;;;;;;;;10268394;28;19928;-66
2021/08/20 12:40:56;;;;;;;;;;;;;;;;;;10285975;28;19941;-66
2021/08/20 12:45:54;;;;;;;;;;;;;;;;;;10280050;28;20240;-67
2021/08/20 12:50:51;;;;;;;;;;;;;;;;;;10297968;28;19925;-66
2021/08/20 12:55:48;;;;;;;;;;;;;;;;;;10282340;28;19921;-67
2021/08/20 13:00:46;;;;;;;;;;;;;;;;;;10282048;28;19921;-67
2021/08/20 13:05:43;;;;;;;;;;;;;;;;;;10285883;28;20739;-68
2021/08/20 13:10:40;;;;;;;;;;;;;;;;;;10284528;28;19917;-67
2021/08/20 13:15:37;;;;;;;;;;;;;;;;;;10285111;28;19925;-67
2021/08/20 13:20:35;;;;;;;;;;;;;;;;;;10273618;28;19925;-67
2021/08/20 13:25:32;;;;;;;;;;;;;;;;;;10299751;28;20008;-66
2021/08/20 13:30:29;;;;;;;;;;;;;;;;;;10280861;28;19932;-67
2021/08/20 13:35:27;;;;;;;;;;;;;;;;;;10298630;28;19924;-67
2021/08/20 13:40:30;;;;;;;;;;;;;;;;;;10286440;28;20410;-67
2021/08/20 13:45:27;;;;;;;;;;;;;;;;;;10264914;28;19925;-67
2021/08/20 13:50:25;;;;;;;;;;;;;;;;;;10301645;28;19929;-67
2021/08/20 13:55:22;;;;;;;;;;;;;;;;;;10285456;28;19921;-67
2021/08/20 14:00:19;;;;;;;;;;;;;;;;;;10289013;28;20015;-68
2021/08/20 14:05:16;;;;;;;;;;;;;;;;;;10284351;28;19925;-66
2021/08/20 14:10:14;;;;;;;;;;;;;;;;;;10280787;28;19959;-67
2021/08/20 14:15:11;;;;;;;;;;;;;;;;;;10284212;28;19921;-67
2021/08/20 14:20:08;;;;;;;;;;;;;;;;;;10288397;28;19966;-67
2021/08/20 14:25:06;;;;;;;;;;;;;;;;;;10275715;28;19917;-67
2021/08/20 14:30:03;;;;;;;;;;;;;;;;;;10270087;28;20071;-67
2021/08/20 14:35:00;;;;;;;;;;;;;;;;;;10291102;28;19914;-66
2021/08/20 14:39:58;;;;;;;;;;;;;;;;;;10288678;28;19913;-68
2021/08/20 14:44:55;;;;;;;;;;;;;;;;;;10267407;28;20003;-67
2021/08/20 14:49:53;;;;;;;;;;;;;;;;;;10294512;28;19940;-66
2021/08/20 14:54:50;;;;;;;;;;;;;;;;;;10289431;28;19925;-66
2021/08/20 14:59:47;;;;;;;;;;;;;;;;;;10268064;28;19975;-67
2021/08/20 15:04:45;;;;;;;;;;;;;;;;;;10272860;28;19998;-67
2021/08/20 15:09:42;;;;;;;;;;;;;;;;;;10284275;28;20387;-67
2021/08/20 15:14:39;;;;;;;;;;;;;;;;;;10268122;28;20004;-67
2021/08/20 15:19:37;;;;;;;;;;;;;;;;;;10289369;28;19921;-67
2021/08/20 15:24:34;;;;;;;;;;;;;;;;;;10311217;28;19928;-67
2021/08/20 15:29:31;;;;;;;;;;;;;;;;;;10270331;28;19928;-67
2021/08/20 15:34:31;;;;;;;;;;;;;;;;;;10298098;28;19925;-66
2021/08/20 15:39:30;;;;;;;;;;;;;;;;;;10291630;28;20988;-67
2021/08/20 15:44:28;;;;;;;;;;;;;;;;;;10288550;28;19918;-67
2021/08/20 15:49:25;;;;;;;;;;;;;;;;;;10276099;28;19920;-67
2021/08/20 15:54:22;;;;;;;;;;;;;;;;;;10305749;28;20370;-68
2021/08/20 15:59:19;;;;;;;;;;;;;;;;;;10291548;28;19964;-68
2021/08/20 16:04:17;;;;;;;;;;;;;;;;;;10289287;28;19984;-67
2021/08/20 16:09:14;;;;;;;;;;;;;;;;;;10296343;28;19921;-67
2021/08/20 16:14:11;;;;;;;;;;;;;;;;;;10292530;28;20394;-68
2021/08/20 16:19:11;;;;;;;;;;;;;;;;;;10287561;28;19920;-67
2021/08/20 16:24:09;;;;;;;;;;;;;;;;;;10295861;28;19913;-68
2021/08/20 16:29:06;;;;;;;;;;;;;;;;;;10280526;28;19927;-66
2021/08/20 16:34:03;;;;;;;;;;;;;;;;;;10297047;28;19917;-68
2021/08/20 16:39:01;;;;;;;;;;;;;;;;;;10300256;28;19909;-67
2021/08/20 16:43:58;;;;;;;;;;;;;;;;;;10299904;28;19913;-67
2021/08/20 16:48:55;;;;;;;;;;;;;;;;;;10300113;28;19920;-68
2021/08/20 16:53:54;;;;;;;;;;;;;;;;;;10301404;28;19917;-67
2021/08/20 16:58:51;;;;;;;;;;;;;;;;;;10287080;28;19979;-67
2021/08/20 17:03:48;;;;;;;;;;;;;;;;;;10284063;28;19928;-67
2021/08/20 17:08:46;;;;;;;;;;;;;;;;;;10295055;28;19925;-68
2021/08/20 17:13:43;;;;;;;;;;;;;;;;;;10276513;28;19949;-67
2021/08/20 17:18:41;;;;;;;;;;;;;;;;;;10278115;28;20366;-66
2021/08/20 17:23:39;;;;;;;;;;;;;;;;;;10297393;28;21024;-66
2021/08/20 17:28:36;;;;;;;;;;;;;;;;;;10300361;28;19947;-67
2021/08/20 17:33:34;;;;;;;;;;;;;;;;;;10295745;28;19925;-67
2021/08/20 17:38:32;;;;;;;;;;;;;;;;;;10306222;28;19917;-68
2021/08/20 17:43:29;;;;;;;;;;;;;;;;;;10286794;28;19924;-66
2021/08/20 17:48:26;;;;;;;;;;;;;;;;;;10285382;28;19944;-67
2021/08/20 17:53:24;;;;;;;;;;;;;;;;;;10306970;28;19957;-67
2021/08/20 17:58:21;;;;;;;;;;;;;;;;;;10311441;28;19921;-67
2021/08/20 18:03:18;;;;;;;;;;;;;;;;;;10246187;28;20624;-67
2021/08/20 18:08:16;;;;;;;;;;;;;;;;;;10226606;28;19937;-68
2021/08/20 18:13:13;;;;;;;;;;;;;;;;;;10227438;28;19925;-68
2021/08/20 18:18:11;;;;;;;;;;;;;;;;;;10244514;28;20105;-67
2021/08/20 18:23:08;;;;;;;;;;;;;;;;;;10259979;28;20368;-68
2021/08/20 18:28:05;;;;;;;;;;;;;;;;;;10253791;28;19960;-67
2021/08/20 18:33:03;;;;;;;;;;;;;;;;;;10294170;28;19928;-67
2021/08/20 18:38:00;;;;;;;;;;;;;;;;;;10289723;28;19997;-68
2021/08/20 18:42:59;;;;;;;;;;;;;;;;;;10292783;28;19971;-68
2021/08/20 18:47:56;;;;;;;;;;;;;;;;;;10272836;28;20011;-66
2021/08/20 18:52:54;;;;;;;;;;;;;;;;;;10271371;28;20474;-68
2021/08/20 18:57:51;;;;;;;;;;;;;;;;;;10294248;28;19936;-67
2021/08/20 19:02:48;;;;;;;;;;;;;;;;;;10303449;28;19928;-67
2021/08/20 19:07:45;;;;;;;;;;;;;;;;;;10299862;28;20014;-67
2021/08/20 19:12:43;;;;;;;;;;;;;;;;;;10302828;28;19932;-67
2021/08/20 19:17:41;;;;;;;;;;;;;;;;;;10269334;28;19918;-67
2021/08/20 19:22:38;;;;;;;;;;;;;;;;;;10270810;28;20034;-67
2021/08/20 19:27:35;;;;;;;;;;;;;;;;;;10276461;28;19925;-66
2021/08/20 19:32:32;;;;;;;;;;;;;;;;;;10275826;28;19921;-67
2021/08/20 19:37:32;;;;;;;;;;;;;;;;;;10272780;28;20303;-66
2021/08/20 19:42:29;;;;;;;;;;;;;;;;;;10269923;28;20007;-66
2021/08/20 19:47:26;;;;;;;;;;;;;;;;;;10273372;28;20027;-66
2021/08/20 19:52:23;;;;;;;;;;;;;;;;;;10281119;28;19918;-67
2021/08/20 19:57:21;;;;;;;;;;;;;;;;;;10280704;28;20015;-67
2021/08/20 20:02:18;;;;;;;;;;;;;;;;;;10267433;28;20288;-66
2021/08/20 20:07:16;;;;;;;;;;;;;;;;;;10274284;28;20306;-67
2021/08/20 20:12:13;;;;;;;;;;;;;;;;;;10275958;28;19918;-66
2021/08/20 20:17:11;;;;;;;;;;;;;;;;;;10283466;28;20295;-67
2021/08/20 20:22:08;;;;;;;;;;;;;;;;;;10275094;28;19921;-67
2021/08/20 20:27:05;;;;;;;;;;;;;;;;;;10264376;28;19925;-66
2021/08/20 20:32:03;;;;;;;;;;;;;;;;;;10287781;28;20333;-66
2021/08/20 20:37:01;;;;;;;;;;;;;;;;;;10270659;28;19917;-66
2021/08/20 20:41:59;;;;;;;;;;;;;;;;;;10284389;28;19975;-66
2021/08/20 20:46:56;;;;;;;;;;;;;;;;;;10279252;28;19922;-65
2021/08/20 20:51:53;;;;;;;;;;;;;;;;;;10284569;28;19921;-66
2021/08/20 20:56:50;;;;;;;;;;;;;;;;;;10276953;28;19925;-67
2021/08/20 21:01:48;;;;;;;;;;;;;;;;;;10282060;28;19964;-66
2021/08/20 21:06:45;;;;;;;;;;;;;;;;;;10282003;28;19921;-66
2021/08/20 21:11:43;;;;;;;;;;;;;;;;;;10274824;28;19917;-65
2021/08/20 21:16:40;;;;;;;;;;;;;;;;;;10282289;28;19917;-66
2021/08/20 21:21:37;;;;;;;;;;;;;;;;;;10287997;28;20027;-66
2021/08/20 21:26:34;;;;;;;;;;;;;;;;;;10281934;28;19952;-66
2021/08/20 21:31:32;;;;;;;;;;;;;;;;;;10252980;28;19971;-67
2021/08/20 21:36:29;;;;;;;;;;;;;;;;;;10290648;28;19944;-66
2021/08/20 21:41:26;;;;;;;;;;;;;;;;;;10292300;28;19913;-67
2021/08/20 21:46:24;;;;;;;;;;;;;;;;;;10279491;28;19921;-67
2021/08/20 21:51:21;;;;;;;;;;;;;;;;;;10296564;28;20015;-66
2021/08/20 21:56:18;;;;;;;;;;;;;;;;;;10293815;28;19924;-67
2021/08/20 22:01:15;;;;;;;;;;;;;;;;;;10293676;28;19917;-67
2021/08/20 22:06:13;;;;;;;;;;;;;;;;;;10267432;28;20020;-66
2021/08/20 22:11:10;;;;;;;;;;;;;;;;;;10292741;28;19917;-66
2021/08/20 22:16:07;;;;;;;;;;;;;;;;;;10276878;28;20525;-66
2021/08/20 22:21:04;;;;;;;;;;;;;;;;;;10307242;28;19920;-66
2021/08/20 22:26:02;;;;;;;;;;;;;;;;;;10293269;28;20063;-66
2021/08/20 22:30:59;;;;;;;;;;;;;;;;;;10267956;28;20339;-66
2021/08/20 22:35:56;;;;;;;;;;;;;;;;;;10293212;28;19923;-66
2021/08/20 22:40:54;;;;;;;;;;;;;;;;;;10272568;28;20509;-66
2021/08/20 22:45:51;;;;;;;;;;;;;;;;;;10285909;28;19943;-66
2021/08/20 22:50:49;;;;;;;;;;;;;;;;;;10290386;28;19932;-66
2021/08/20 22:55:46;;;;;;;;;;;;;;;;;;10279397;28;19913;-66
2021/08/20 23:00:44;;;;;;;;;;;;;;;;;;10290268;28;19920;-66
2021/08/20 23:05:42;;;;;;;;;;;;;;;;;;10295888;28;19925;-67
2021/08/20 23:10:39;;;;;;;;;;;;;;;;;;10296181;28;19955;-67
2021/08/20 23:15:36;;;;;;;;;;;;;;;;;;10305097;28;19917;-66
2021/08/20 23:20:33;;;;;;;;;;;;;;;;;;10292235;28;19921;-66
2021/08/20 23:25:31;;;;;;;;;;;;;;;;;;10285447;28;20920;-66
2021/08/20 23:30:28;;;;;;;;;;;;;;;;;;10308192;28;19924;-66
2021/08/20 23:35:26;;;;;;;;;;;;;;;;;;10290684;28;19917;-66
2021/08/20 23:40:23;;;;;;;;;;;;;;;;;;10288474;28;19928;-65
2021/08/20 23:45:20;;;;;;;;;;;;;;;;;;10278335;28;20032;-66
2021/08/20 23:50:18;;;;;;;;;;;;;;;;;;10290193;28;20410;-66
2021/08/20 23:55:16;;;;;;;;;;;;;;;;;;10284130;28;20060;-66
